Time;durP1;ratioP1;P1;durP2;ratioP2;P2;SDS_P1;SDS_P2;PMS_P1;PMS_P2;Temp;Humidity;BMP_temperature;BMP_pressure;BME280_temperature;BME280_humidity;BME280_pressure;Samples;Min_cycle;Max_cycle;Signal;HPM_P1;HPM_P2
2020/12/18 00:02:23;;;;;;;16.65;10.07;;;5.80;99.90;;;;;;5029532;28;20559;-56
2020/12/18 00:04:49;;;;;;;17.92;9.23;;;5.80;99.90;;;;;;5023387;28;20299;-58
2020/12/18 00:07:15;;;;;;;16.88;9.98;;;5.70;99.90;;;;;;5025564;28;20112;-56
2020/12/18 00:09:42;;;;;;;16.70;9.65;;;5.80;99.90;;;;;;5028196;28;20563;-58
2020/12/18 00:12:08;;;;;;;20.08;10.40;;;5.80;99.90;;;;;;5024935;28;20064;-56
2020/12/18 00:14:33;;;;;;;21.00;10.15;;;5.70;99.90;;;;;;5031873;28;20546;-58
2020/12/18 00:16:59;;;;;;;19.05;11.07;;;5.80;99.90;;;;;;5032397;28;20029;-58
2020/12/18 00:19:24;;;;;;;14.30;9.00;;;5.80;99.90;;;;;;5032817;28;20041;-58
2020/12/18 00:21:54;;;;;;;14.68;8.88;;;5.80;99.90;;;;;;5032643;28;20025;-58
2020/12/18 00:24:20;;;;;;;15.35;9.02;;;5.80;99.90;;;;;;5031857;28;20498;-58
2020/12/18 00:26:45;;;;;;;17.42;9.63;;;5.80;99.90;;;;;;5029410;28;20065;-58
2020/12/18 00:29:11;;;;;;;19.17;10.25;;;5.80;99.90;;;;;;5029938;28;20420;-59
2020/12/18 00:31:36;;;;;;;16.73;10.35;;;5.80;99.90;;;;;;5028787;28;20040;-56
2020/12/18 00:34:02;;;;;;;16.02;9.35;;;5.80;99.90;;;;;;5031977;28;20496;-57
2020/12/18 00:36:27;;;;;;;21.33;11.48;;;5.80;99.90;;;;;;5032637;28;20033;-57
2020/12/18 00:38:53;;;;;;;21.02;12.18;;;5.80;99.90;;;;;;5033294;28;20136;-57
2020/12/18 00:41:18;;;;;;;20.85;11.30;;;5.70;99.90;;;;;;5027493;28;20114;-56
2020/12/18 00:43:43;;;;;;;17.27;10.00;;;5.70;99.90;;;;;;5032892;28;20384;-56
2020/12/18 00:46:09;;;;;;;18.75;10.25;;;5.60;99.90;;;;;;5028845;28;20085;-55
2020/12/18 00:48:34;;;;;;;14.88;9.07;;;5.60;99.90;;;;;;5021231;28;20030;-57
2020/12/18 00:51:00;;;;;;;20.25;11.77;;;5.50;99.90;;;;;;5028733;28;20033;-57
2020/12/18 00:53:25;;;;;;;20.10;10.50;;;5.50;99.90;;;;;;5031439;28;20100;-58
2020/12/18 00:55:52;;;;;;;21.15;12.02;;;5.50;99.90;;;;;;5030862;28;20021;-58
2020/12/18 00:58:18;;;;;;;25.02;13.18;;;5.60;99.90;;;;;;5031859;28;20034;-55
2020/12/18 01:00:43;;;;;;;20.95;12.10;;;5.60;99.90;;;;;;5029280;28;20018;-55
2020/12/18 01:03:09;;;;;;;19.00;10.15;;;5.60;99.90;;;;;;5031608;28;20040;-58
2020/12/18 01:05:34;;;;;;;17.40;10.45;;;5.50;99.90;;;;;;5030923;28;20013;-54
2020/12/18 01:08:00;;;;;;;17.17;11.02;;;5.50;99.90;;;;;;5027247;28;20516;-56
2020/12/18 01:10:25;;;;;;;18.05;9.68;;;5.40;99.90;;;;;;5027425;28;20041;-59
2020/12/18 01:12:50;;;;;;;17.35;9.70;;;5.30;99.90;;;;;;5028841;28;20089;-55
2020/12/18 01:15:17;;;;;;;17.75;9.68;;;5.20;99.90;;;;;;5026519;28;20112;-58
2020/12/18 01:17:43;;;;;;;17.98;10.32;;;5.10;99.90;;;;;;5028380;28;20044;-55
2020/12/18 01:20:08;;;;;;;15.90;9.23;;;5.00;99.90;;;;;;5028870;28;20029;-55
2020/12/18 01:22:34;;;;;;;26.33;12.73;;;4.90;99.90;;;;;;5029620;28;20105;-55
2020/12/18 01:24:59;;;;;;;19.95;10.75;;;4.80;99.90;;;;;;5022478;28;20514;-57
2020/12/18 01:27:24;;;;;;;17.63;9.80;;;4.80;99.90;;;;;;5026397;28;20025;-57
2020/12/18 01:29:50;;;;;;;21.70;11.38;;;4.70;99.90;;;;;;5033667;28;20033;-58
2020/12/18 01:32:15;;;;;;;20.08;10.50;;;4.60;99.90;;;;;;5030145;28;20033;-59
2020/12/18 01:34:44;;;;;;;19.40;11.60;;;4.50;99.90;;;;;;5026279;28;20435;-57
2020/12/18 01:37:10;;;;;;;20.33;11.13;;;4.50;99.90;;;;;;5043507;28;20022;-55
2020/12/18 01:39:36;;;;;;;25.02;12.00;;;4.40;99.90;;;;;;5031945;28;20044;-55
2020/12/18 01:42:01;;;;;;;20.65;11.60;;;4.40;99.90;;;;;;5029923;28;20021;-58
2020/12/18 01:44:27;;;;;;;17.83;10.15;;;4.30;99.90;;;;;;5032116;28;20032;-58
2020/12/18 01:46:52;;;;;;;16.90;9.55;;;4.30;99.90;;;;;;5030582;28;20209;-59
2020/12/18 01:49:18;;;;;;;20.67;11.07;;;4.40;99.90;;;;;;5031690;28;20172;-58
2020/12/18 01:51:44;;;;;;;18.52;10.57;;;4.50;99.90;;;;;;5032173;28;20026;-58
2020/12/18 01:54:10;;;;;;;20.67;11.00;;;4.50;99.90;;;;;;5031954;28;20033;-57
2020/12/18 01:56:36;;;;;;;23.90;11.20;;;4.60;99.90;;;;;;5031303;28;20077;-56
2020/12/18 01:59:03;;;;;;;19.95;10.48;;;4.60;99.90;;;;;;5031450;28;20476;-55
2020/12/18 02:01:28;;;;;;;18.33;10.20;;;4.70;99.90;;;;;;5026677;28;20048;-57
2020/12/18 02:03:55;;;;;;;21.35;10.48;;;4.70;99.90;;;;;;5031051;28;20104;-54
2020/12/18 02:06:25;;;;;;;16.77;10.02;;;4.80;99.90;;;;;;5030617;28;20029;-55
2020/12/18 02:08:51;;;;;;;24.48;11.55;;;4.80;99.90;;;;;;5020641;28;20085;-58
2020/12/18 02:11:20;;;;;;;19.08;10.60;;;4.90;99.90;;;;;;5027103;28;20099;-57
2020/12/18 02:13:51;;;;;;;21.40;11.00;;;4.90;99.90;;;;;;5036029;28;20108;-58
2020/12/18 02:16:16;;;;;;;19.75;10.88;;;4.90;99.90;;;;;;5031120;28;20037;-59
2020/12/18 02:18:42;;;;;;;19.23;10.45;;;4.90;99.90;;;;;;5027420;28;20404;-57
2020/12/18 02:21:08;;;;;;;18.58;9.80;;;4.90;99.90;;;;;;5026345;28;20420;-58
2020/12/18 02:23:38;;;;;;;16.58;8.85;;;4.90;99.90;;;;;;5026812;28;20445;-57
2020/12/18 02:26:15;;;;;;;16.15;9.52;;;4.90;99.90;;;;;;5024142;28;20087;-57
2020/12/18 02:28:42;;;;;;;16.77;9.35;;;4.90;99.90;;;;;;5020478;28;20064;-59
2020/12/18 02:31:09;;;;;;;19.58;10.50;;;4.90;99.90;;;;;;5028274;28;20041;-59
2020/12/18 02:33:36;;;;;;;18.15;10.05;;;4.80;99.90;;;;;;5030128;28;20029;-55
2020/12/18 02:36:03;;;;;;;18.08;10.13;;;4.70;99.90;;;;;;5023536;28;20065;-58
2020/12/18 02:38:29;;;;;;;19.98;11.13;;;4.60;99.90;;;;;;5036394;28;20065;-56
2020/12/18 02:40:56;;;;;;;19.27;10.00;;;4.60;99.90;;;;;;5026433;28;20028;-54
2020/12/18 02:43:22;;;;;;;20.17;11.15;;;4.50;99.90;;;;;;5025758;28;20025;-56
2020/12/18 02:45:49;;;;;;;17.60;9.82;;;4.50;99.90;;;;;;5027253;28;20029;-57
2020/12/18 02:48:16;;;;;;;19.58;10.88;;;4.50;99.90;;;;;;5024895;28;20385;-59
2020/12/18 02:50:41;;;;;;;14.95;9.77;;;4.50;99.90;;;;;;5028739;28;20476;-57
2020/12/18 02:53:15;;;;;;;15.07;9.20;;;4.40;99.90;;;;;;5026933;28;20028;-59
2020/12/18 02:55:42;;;;;;;21.80;10.45;;;4.40;99.90;;;;;;5027594;28;20036;-58
2020/12/18 02:58:08;;;;;;;23.77;11.77;;;4.40;99.90;;;;;;5029367;28;20431;-57
2020/12/18 03:00:35;;;;;;;23.55;11.35;;;4.40;99.90;;;;;;5024558;28;20030;-55
2020/12/18 03:03:01;;;;;;;19.17;10.50;;;4.50;99.90;;;;;;5024184;28;20500;-57
2020/12/18 03:05:26;;;;;;;18.92;10.10;;;4.50;99.90;;;;;;5029676;28;20029;-59
2020/12/18 03:07:52;;;;;;;17.67;9.02;;;4.60;99.90;;;;;;5029253;28;20029;-58
2020/12/18 03:10:18;;;;;;;23.92;11.30;;;4.60;99.90;;;;;;5021784;28;20060;-56
2020/12/18 03:12:44;;;;;;;17.85;10.18;;;4.60;99.90;;;;;;5025645;28;20072;-59
2020/12/18 03:15:09;;;;;;;20.13;10.02;;;4.50;99.90;;;;;;5029849;28;20104;-58
2020/12/18 03:17:35;;;;;;;21.95;11.18;;;4.40;99.90;;;;;;5025020;28;20044;-55
2020/12/18 03:20:00;;;;;;;20.27;10.80;;;4.30;99.90;;;;;;5030371;28;20037;-57
2020/12/18 03:22:25;;;;;;;22.17;11.93;;;4.30;99.90;;;;;;5030364;28;20049;-57
2020/12/18 03:24:51;;;;;;;19.23;11.15;;;4.30;99.90;;;;;;5029022;28;20112;-57
2020/12/18 03:27:16;;;;;;;17.13;9.15;;;4.30;99.90;;;;;;5027138;28;20389;-56
2020/12/18 03:29:42;;;;;;;21.45;10.80;;;4.30;99.90;;;;;;5026129;28;20061;-57
2020/12/18 03:32:07;;;;;;;18.85;10.88;;;4.20;99.90;;;;;;5030134;28;20026;-58
2020/12/18 03:34:33;;;;;;;21.88;10.85;;;4.10;99.90;;;;;;5024639;28;20029;-57
2020/12/18 03:36:58;;;;;;;20.55;10.73;;;4.10;99.90;;;;;;5027170;28;20578;-57
2020/12/18 03:39:24;;;;;;;22.02;11.35;;;4.00;99.90;;;;;;5026412;28;20041;-57
2020/12/18 03:41:49;;;;;;;20.45;11.05;;;3.90;99.90;;;;;;5027522;28;20048;-58
2020/12/18 03:44:15;;;;;;;21.90;11.48;;;3.80;99.90;;;;;;5024610;28;20037;-58
2020/12/18 03:46:40;;;;;;;21.63;10.55;;;3.80;99.90;;;;;;5029540;28;20057;-58
2020/12/18 03:49:06;;;;;;;22.50;11.15;;;3.70;99.90;;;;;;5026270;28;20041;-57
2020/12/18 03:51:31;;;;;;;20.23;10.85;;;3.60;99.90;;;;;;5030484;28;20040;-58
2020/12/18 03:53:57;;;;;;;19.42;11.00;;;3.50;99.90;;;;;;5033470;28;20437;-59
2020/12/18 03:56:22;;;;;;;20.95;10.23;;;3.50;99.90;;;;;;5032766;28;20021;-56
2020/12/18 03:58:48;;;;;;;21.17;10.88;;;3.40;99.90;;;;;;5031908;28;20104;-56
2020/12/18 04:01:13;;;;;;;20.23;10.80;;;3.40;99.90;;;;;;5031716;28;20044;-57
2020/12/18 04:03:39;;;;;;;25.48;11.38;;;3.40;99.90;;;;;;5032217;28;20408;-55
2020/12/18 04:06:04;;;;;;;21.50;10.63;;;3.40;99.90;;;;;;5030798;28;20031;-58
2020/12/18 04:08:30;;;;;;;24.50;11.60;;;3.40;99.90;;;;;;5030062;28;20029;-57
2020/12/18 04:10:55;;;;;;;23.00;10.82;;;3.30;99.90;;;;;;5032013;28;20049;-58
2020/12/18 04:13:21;;;;;;;23.80;12.23;;;3.20;99.90;;;;;;5027876;28;20029;-57
2020/12/18 04:15:46;;;;;;;23.35;10.77;;;3.20;99.90;;;;;;5026097;28;20040;-57
2020/12/18 04:18:12;;;;;;;24.35;12.32;;;3.10;99.90;;;;;;5028798;28;20030;-55
2020/12/18 04:20:38;;;;;;;23.65;11.93;;;3.00;99.90;;;;;;5031846;28;20116;-57
2020/12/18 04:23:05;;;;;;;26.33;12.05;;;2.90;99.90;;;;;;5026059;28;20444;-58
2020/12/18 04:25:30;;;;;;;23.77;10.88;;;2.90;99.90;;;;;;5030508;28;20045;-58
2020/12/18 04:27:56;;;;;;;28.42;12.88;;;2.80;99.90;;;;;;5034155;28;20026;-58
2020/12/18 04:30:21;;;;;;;25.73;11.85;;;2.80;99.90;;;;;;5033957;28;20037;-58
2020/12/18 04:32:47;;;;;;;28.63;12.18;;;2.70;99.90;;;;;;5029303;28;20481;-55
2020/12/18 04:35:12;;;;;;;24.00;12.38;;;2.70;99.90;;;;;;5029571;28;20449;-57
2020/12/18 04:37:38;;;;;;;27.05;13.70;;;2.70;99.90;;;;;;5032037;28;20033;-58
2020/12/18 04:40:04;;;;;;;27.15;12.55;;;2.60;99.90;;;;;;5029766;28;20029;-57
2020/12/18 04:42:33;;;;;;;24.15;12.02;;;2.60;99.90;;;;;;5031972;28;20033;-59
2020/12/18 04:45:00;;;;;;;29.77;12.27;;;2.50;99.90;;;;;;5031540;28;20048;-56
2020/12/18 04:47:26;;;;;;;24.00;11.35;;;2.40;99.90;;;;;;5031592;28;20401;-58
2020/12/18 04:49:54;;;;;;;28.90;14.52;;;2.40;99.90;;;;;;5029867;28;20033;-59
2020/12/18 04:52:22;;;;;;;31.50;15.00;;;2.40;99.90;;;;;;5033521;28;20107;-58
2020/12/18 04:54:48;;;;;;;28.95;12.48;;;2.30;99.90;;;;;;5032269;28;20123;-56
2020/12/18 04:57:17;;;;;;;28.05;11.32;;;2.30;99.90;;;;;;5029387;28;20551;-57
2020/12/18 04:59:43;;;;;;;28.60;12.50;;;2.30;99.90;;;;;;5031925;28;20053;-57
2020/12/18 05:02:09;;;;;;;33.55;14.05;;;2.30;99.90;;;;;;5030515;28;20025;-56
2020/12/18 05:04:40;;;;;;;35.10;14.23;;;2.40;99.90;;;;;;5030979;28;20021;-58
2020/12/18 05:07:05;;;;;;;22.45;11.77;;;2.50;99.90;;;;;;5019395;28;20030;-58
2020/12/18 05:09:31;;;;;;;30.38;12.93;;;2.60;99.90;;;;;;5023326;28;20108;-58
2020/12/18 05:12:05;;;;;;;31.38;14.02;;;2.60;99.90;;;;;;5023177;28;20459;-55
2020/12/18 05:14:30;;;;;;;38.30;14.82;;;2.70;99.90;;;;;;5036462;28;20072;-57
2020/12/18 05:16:55;;;;;;;30.60;13.45;;;2.70;99.90;;;;;;5028261;28;20061;-56
2020/12/18 05:19:21;;;;;;;28.73;12.13;;;2.70;99.90;;;;;;5025683;28;20033;-58
2020/12/18 05:21:49;;;;;;;26.58;11.75;;;2.70;99.90;;;;;;5027951;28;20032;-56
2020/12/18 05:24:15;;;;;;;28.85;13.27;;;2.70;99.90;;;;;;5030464;28;20469;-58
2020/12/18 05:26:41;;;;;;;28.20;12.73;;;2.60;99.90;;;;;;5025497;28;20029;-56
2020/12/18 05:29:08;;;;;;;23.10;11.43;;;2.60;99.90;;;;;;5024964;28;20484;-56
2020/12/18 05:31:34;;;;;;;27.80;12.13;;;2.50;99.90;;;;;;5031700;28;20539;-56
2020/12/18 05:34:01;;;;;;;31.50;13.00;;;2.40;99.90;;;;;;5026344;28;20105;-58
2020/12/18 05:36:27;;;;;;;31.15;12.60;;;2.40;99.90;;;;;;5027359;28;20057;-58
2020/12/18 05:38:53;;;;;;;30.73;13.98;;;2.40;99.90;;;;;;5028638;28;20519;-55
2020/12/18 05:41:23;;;;;;;26.30;11.45;;;2.40;99.90;;;;;;5028766;28;20121;-54
2020/12/18 05:43:49;;;;;;;26.92;13.65;;;2.50;99.90;;;;;;5030431;28;20104;-59
2020/12/18 05:46:17;;;;;;;31.42;13.80;;;2.60;99.90;;;;;;5027522;28;20133;-59
2020/12/18 05:48:55;;;;;;;31.90;13.85;;;2.70;99.90;;;;;;5027638;28;20536;-56
2020/12/18 05:51:30;;;;;;;35.40;15.05;;;2.80;99.90;;;;;;5030346;28;20056;-56
2020/12/18 05:54:16;;;;;;;28.13;11.20;;;2.80;99.90;;;;;;5027943;28;20140;-58
2020/12/18 05:56:44;;;;;;;27.77;12.27;;;2.80;99.90;;;;;;5026121;28;20053;-55
2020/12/18 05:59:18;;;;;;;34.30;14.13;;;2.90;99.90;;;;;;5026380;28;20038;-59
2020/12/18 06:01:52;;;;;;;28.73;13.75;;;2.90;99.90;;;;;;5025305;28;20044;-57
2020/12/18 06:04:22;;;;;;;28.23;13.73;;;2.90;99.90;;;;;;5031671;28;20025;-56
2020/12/18 06:06:52;;;;;;;31.27;14.35;;;3.00;99.90;;;;;;5025940;28;20112;-59
2020/12/18 06:09:26;;;;;;;25.75;13.18;;;3.00;99.90;;;;;;5028128;28;20033;-55
2020/12/18 06:11:52;;;;;;;32.17;14.65;;;3.00;99.90;;;;;;5026199;28;20021;-58
2020/12/18 06:14:19;;;;;;;33.38;14.48;;;3.10;99.90;;;;;;5023674;28;20022;-59
2020/12/18 06:16:52;;;;;;;35.05;15.00;;;3.10;99.90;;;;;;5027201;28;20041;-57
2020/12/18 06:19:20;;;;;;;32.42;15.02;;;3.20;99.90;;;;;;5028678;28;20029;-59
2020/12/18 06:21:53;;;;;;;30.60;14.63;;;3.20;99.90;;;;;;5029664;28;20415;-58
2020/12/18 06:24:18;;;;;;;35.25;15.52;;;3.30;99.90;;;;;;5026447;28;20022;-58
2020/12/18 06:26:46;;;;;;;31.02;15.55;;;3.30;99.90;;;;;;5030626;28;20032;-55
2020/12/18 06:29:16;;;;;;;41.88;20.88;;;3.30;99.90;;;;;;5027392;28;20026;-57
2020/12/18 06:31:42;;;;;;;40.58;18.15;;;3.40;99.90;;;;;;5026698;28;20063;-55
2020/12/18 06:34:07;;;;;;;33.03;15.25;;;3.40;99.90;;;;;;5022695;28;20420;-58
2020/12/18 06:36:54;;;;;;;38.28;16.60;;;3.50;99.90;;;;;;5029711;28;20034;-56
2020/12/18 06:39:37;;;;;;;32.92;16.98;;;3.50;99.90;;;;;;5027088;28;20444;-57
2020/12/18 06:42:11;;;;;;;33.60;15.60;;;3.60;99.90;;;;;;5025420;28;20028;-58
2020/12/18 06:44:38;;;;;;;31.85;15.82;;;3.60;99.90;;;;;;5029985;28;20481;-58
2020/12/18 06:47:07;;;;;;;29.55;14.63;;;3.70;99.90;;;;;;5029302;28;20033;-58
2020/12/18 06:50:05;;;;;;;31.08;15.95;;;3.70;99.90;;;;;;5026303;28;20041;-59
2020/12/18 06:52:46;;;;;;;39.90;19.83;;;3.70;99.90;;;;;;5027530;28;20030;-58
2020/12/18 06:55:25;;;;;;;34.35;15.77;;;3.80;99.90;;;;;;5029390;28;20538;-59
2020/12/18 06:58:15;;;;;;;29.85;14.05;;;3.80;99.90;;;;;;5027432;28;20041;-59
2020/12/18 07:00:48;;;;;;;29.05;14.35;;;3.80;99.90;;;;;;5022978;28;20057;-58
2020/12/18 07:03:35;;;;;;;30.35;14.85;;;3.80;99.90;;;;;;5027476;28;20385;-58
2020/12/18 07:06:03;;;;;;;31.15;14.93;;;3.80;99.90;;;;;;5025638;28;20040;-59
2020/12/18 07:08:34;;;;;;;35.22;16.45;;;3.90;99.90;;;;;;5027643;28;20037;-58
2020/12/18 07:11:21;;;;;;;32.50;16.17;;;3.90;99.90;;;;;;5025927;28;20036;-59
2020/12/18 07:13:51;;;;;;;29.67;15.25;;;3.90;99.90;;;;;;5031041;28;20039;-57
2020/12/18 07:16:26;;;;;;;28.27;14.18;;;4.00;99.90;;;;;;5024444;28;20039;-59
2020/12/18 07:19:04;;;;;;;29.73;15.23;;;4.00;99.90;;;;;;5026215;28;20059;-55
2020/12/18 07:21:29;;;;;;;28.00;15.07;;;4.00;99.90;;;;;;5025456;28;20452;-59
2020/12/18 07:23:55;;;;;;;24.80;14.18;;;4.00;99.90;;;;;;5023055;28;20027;-59
2020/12/18 07:26:21;;;;;;;30.30;15.02;;;4.00;99.90;;;;;;5026204;28;22169;-57
2020/12/18 07:28:47;;;;;;;27.10;14.43;;;3.90;99.90;;;;;;5029694;28;20026;-59
2020/12/18 07:31:19;;;;;;;27.17;14.85;;;3.90;99.90;;;;;;5029143;28;20029;-58
2020/12/18 07:33:46;;;;;;;30.48;14.40;;;3.80;99.90;;;;;;5029669;28;20037;-57
2020/12/18 07:36:12;;;;;;;23.45;13.27;;;3.80;99.90;;;;;;5030578;28;20061;-59
2020/12/18 07:38:38;;;;;;;23.58;12.82;;;3.70;99.90;;;;;;5024718;28;20029;-58
2020/12/18 07:41:14;;;;;;;23.58;12.90;;;3.60;99.90;;;;;;5025806;28;20025;-59
2020/12/18 07:43:41;;;;;;;26.52;13.65;;;3.60;99.90;;;;;;5019461;28;20116;-59
2020/12/18 07:46:09;;;;;;;26.45;14.10;;;3.60;99.90;;;;;;5021635;28;20443;-59
2020/12/18 07:48:37;;;;;;;25.48;13.57;;;3.60;99.90;;;;;;5023894;28;20041;-58
2020/12/18 07:51:11;;;;;;;23.27;12.82;;;3.50;99.90;;;;;;5024171;28;20025;-56
2020/12/18 07:53:42;;;;;;;29.52;13.75;;;3.50;99.90;;;;;;5028975;28;20045;-57
2020/12/18 07:56:16;;;;;;;30.58;13.77;;;3.50;99.90;;;;;;5026671;28;20025;-56
2020/12/18 07:59:04;;;;;;;25.63;11.70;;;3.40;99.90;;;;;;5026569;28;20464;-58
2020/12/18 08:01:31;;;;;;;22.77;12.35;;;3.40;99.90;;;;;;5026915;28;20032;-58
2020/12/18 08:04:11;;;;;;;22.75;12.25;;;3.40;99.90;;;;;;5025725;28;20485;-55
2020/12/18 08:06:38;;;;;;;21.55;10.48;;;3.30;99.90;;;;;;5024382;28;20026;-57
2020/12/18 08:09:12;;;;;;;26.85;12.13;;;3.30;99.90;;;;;;5026591;28;20040;-59
2020/12/18 08:11:45;;;;;;;26.95;12.20;;;3.30;99.90;;;;;;5027766;28;20040;-59
2020/12/18 08:14:12;;;;;;;22.90;11.55;;;3.20;99.90;;;;;;5021476;28;20029;-54
2020/12/18 08:16:37;;;;;;;25.98;13.02;;;3.20;99.90;;;;;;5024849;28;20349;-58
2020/12/18 08:19:05;;;;;;;24.23;12.40;;;3.20;99.90;;;;;;5025626;28;20030;-56
2020/12/18 08:21:36;;;;;;;33.70;14.45;;;3.30;99.90;;;;;;5023549;28;20143;-59
2020/12/18 08:24:02;;;;;;;23.80;11.82;;;3.30;99.90;;;;;;5024681;28;20496;-59
2020/12/18 08:26:32;;;;;;;27.92;12.70;;;3.50;99.90;;;;;;5023096;28;20030;-58
2020/12/18 08:28:58;;;;;;;25.20;12.75;;;3.60;99.90;;;;;;5024663;28;20109;-55
2020/12/18 08:31:24;;;;;;;24.13;11.85;;;3.60;99.90;;;;;;5026818;28;20152;-58
2020/12/18 08:33:54;;;;;;;29.95;14.18;;;3.70;99.90;;;;;;5023292;28;20108;-59
2020/12/18 08:36:23;;;;;;;22.95;12.18;;;3.90;99.90;;;;;;5031106;28;20032;-58
2020/12/18 08:39:07;;;;;;;21.70;11.55;;;4.10;99.90;;;;;;5028066;28;20036;-57
2020/12/18 08:41:47;;;;;;;29.00;13.07;;;4.40;99.90;;;;;;5026038;28;20049;-60
2020/12/18 08:44:16;;;;;;;24.13;13.63;;;4.70;99.90;;;;;;5024531;28;20029;-59
2020/12/18 08:46:42;;;;;;;25.20;12.82;;;4.90;99.90;;;;;;5006203;28;20030;-59
2020/12/18 08:49:18;;;;;;;21.45;11.45;;;5.10;99.90;;;;;;5006636;28;20489;-59
2020/12/18 08:51:45;;;;;;;17.60;10.45;;;5.30;99.90;;;;;;5001311;28;20400;-59
2020/12/18 08:54:29;;;;;;;26.38;13.13;;;5.50;99.90;;;;;;5006759;28;20539;-59
2020/12/18 08:57:12;;;;;;;23.80;12.07;;;5.70;99.90;;;;;;5017731;28;20038;-58
2020/12/18 08:59:38;;;;;;;22.88;12.70;;;5.90;99.90;;;;;;5011495;28;20074;-60
2020/12/18 09:02:03;;;;;;;21.70;11.70;;;6.00;99.90;;;;;;5007495;28;20030;-57
2020/12/18 09:04:29;;;;;;;30.15;18.13;;;6.20;99.90;;;;;;5002510;28;20105;-59
2020/12/18 09:06:54;;;;;;;21.73;14.13;;;6.40;99.90;;;;;;5006078;28;20057;-57
2020/12/18 09:09:20;;;;;;;19.85;12.65;;;6.50;99.90;;;;;;5013905;28;20084;-60
2020/12/18 09:11:47;;;;;;;24.23;13.23;;;6.60;99.90;;;;;;4999177;28;20446;-59
2020/12/18 09:14:26;;;;;;;20.40;12.50;;;6.60;99.90;;;;;;5006040;28;20029;-58
2020/12/18 09:16:56;;;;;;;16.52;10.10;;;6.60;99.90;;;;;;5005395;28;20038;-56
2020/12/18 09:19:21;;;;;;;16.02;9.98;;;6.80;99.90;;;;;;5019779;28;20025;-56
2020/12/18 09:21:47;;;;;;;17.55;10.27;;;6.90;99.90;;;;;;5016169;28;20029;-59
2020/12/18 09:24:16;;;;;;;18.52;11.65;;;6.90;99.90;;;;;;5004328;28;20033;-58
2020/12/18 09:26:42;;;;;;;17.60;10.57;;;6.90;99.90;;;;;;5009108;28;20018;-58
2020/12/18 09:29:15;;;;;;;15.68;9.88;;;7.00;99.90;;;;;;5006539;28;20679;-57
2020/12/18 09:31:41;;;;;;;15.55;9.93;;;7.10;99.90;;;;;;5001164;28;20034;-59
2020/12/18 09:34:14;;;;;;;17.70;11.63;;;7.10;99.90;;;;;;5006193;28;21982;-59
2020/12/18 09:36:39;;;;;;;18.48;10.23;;;7.10;99.90;;;;;;5010380;28;20088;-59
2020/12/18 09:39:05;;;;;;;16.13;10.45;;;7.10;99.90;;;;;;5010497;28;20495;-60
2020/12/18 09:41:30;;;;;;;16.83;11.73;;;7.20;99.90;;;;;;5011044;28;20069;-55
2020/12/18 09:43:56;;;;;;;21.55;11.88;;;7.30;99.90;;;;;;4999781;28;20141;-59
2020/12/18 09:46:24;;;;;;;18.08;10.55;;;7.30;99.90;;;;;;5008777;28;20378;-56
2020/12/18 09:48:50;;;;;;;18.95;11.05;;;7.30;99.90;;;;;;5011804;28;20084;-60
2020/12/18 09:51:17;;;;;;;14.07;8.07;;;7.40;99.90;;;;;;5016178;28;20041;-58
2020/12/18 09:53:43;;;;;;;18.83;11.23;;;7.40;99.90;;;;;;5011309;28;20060;-58
2020/12/18 09:56:10;;;;;;;15.18;9.75;;;7.40;99.90;;;;;;5006661;28;20021;-58
2020/12/18 09:58:36;;;;;;;12.60;8.55;;;7.40;99.90;;;;;;5009406;28;20037;-58
2020/12/18 10:01:02;;;;;;;14.80;9.68;;;7.50;99.90;;;;;;5005486;28;20083;-60
2020/12/18 10:03:27;;;;;;;17.83;11.73;;;7.50;99.90;;;;;;5006416;28;20108;-57
2020/12/18 10:05:53;;;;;;;18.90;10.13;;;7.60;99.90;;;;;;4999150;28;20038;-60
2020/12/18 10:08:18;;;;;;;15.05;8.60;;;7.60;99.90;;;;;;5005940;28;20362;-57
2020/12/18 10:10:44;;;;;;;15.32;9.38;;;7.60;99.90;;;;;;5002383;28;20037;-61
2020/12/18 10:13:09;;;;;;;14.70;8.75;;;7.60;99.90;;;;;;4997923;28;20034;-59
2020/12/18 10:15:35;;;;;;;13.90;8.13;;;7.70;99.90;;;;;;5002401;28;23049;-58
2020/12/18 10:18:01;;;;;;;13.77;8.55;;;7.70;99.90;;;;;;5000600;28;20045;-57
2020/12/18 10:20:26;;;;;;;16.10;10.40;;;7.60;99.90;;;;;;5002144;28;20105;-59
2020/12/18 10:22:52;;;;;;;18.23;10.30;;;7.50;99.90;;;;;;5004688;28;20121;-58
2020/12/18 10:25:18;;;;;;;17.23;9.15;;;7.40;99.90;;;;;;5006276;28;20026;-58
2020/12/18 10:27:44;;;;;;;26.08;15.00;;;7.40;99.90;;;;;;5008237;28;20033;-59
2020/12/18 10:30:10;;;;;;;15.32;10.20;;;7.20;99.90;;;;;;5007794;28;20030;-60
2020/12/18 10:32:36;;;;;;;14.85;9.68;;;7.20;99.90;;;;;;5007998;28;20025;-58
2020/12/18 10:35:03;;;;;;;15.93;9.55;;;7.10;99.90;;;;;;5005494;28;20472;-57
2020/12/18 10:37:28;;;;;;;22.50;12.38;;;7.00;99.90;;;;;;5008032;28;20454;-57
2020/12/18 10:39:54;;;;;;;17.50;9.85;;;7.00;99.90;;;;;;5006306;28;20062;-56
2020/12/18 10:42:20;;;;;;;14.48;8.85;;;7.00;99.90;;;;;;5005798;28;20030;-58
2020/12/18 10:44:46;;;;;;;18.42;10.68;;;6.90;99.90;;;;;;5005698;28;20081;-58
2020/12/18 10:47:11;;;;;;;14.40;8.73;;;6.90;99.90;;;;;;5003374;28;20100;-59
2020/12/18 10:49:37;;;;;;;18.98;10.98;;;6.90;99.90;;;;;;5000736;28;20041;-58
2020/12/18 10:52:03;;;;;;;19.23;11.90;;;7.00;99.90;;;;;;5005016;28;20044;-60
2020/12/18 10:54:29;;;;;;;17.77;11.13;;;7.00;99.90;;;;;;5008369;28;20033;-59
2020/12/18 10:56:55;;;;;;;16.08;9.75;;;7.00;99.90;;;;;;5010242;28;20027;-56
2020/12/18 10:59:21;;;;;;;19.70;12.13;;;7.00;99.90;;;;;;5014676;28;20490;-56
2020/12/18 11:01:51;;;;;;;15.52;10.43;;;7.00;99.90;;;;;;5009531;28;20056;-57
2020/12/18 11:04:17;;;;;;;14.85;9.60;;;7.00;99.90;;;;;;5006108;28;20040;-57
2020/12/18 11:06:42;;;;;;;16.13;9.00;;;7.00;99.90;;;;;;5000881;28;20026;-59
2020/12/18 11:09:08;;;;;;;19.38;12.52;;;7.00;99.90;;;;;;4999957;28;20079;-58
2020/12/18 11:11:33;;;;;;;18.63;10.20;;;7.00;99.90;;;;;;5009595;28;20033;-58
2020/12/18 11:14:00;;;;;;;20.67;10.43;;;7.00;99.90;;;;;;5008210;28;20026;-53
2020/12/18 11:16:25;;;;;;;23.35;13.82;;;7.00;99.90;;;;;;5006899;28;20488;-58
2020/12/18 11:18:51;;;;;;;19.90;12.15;;;7.10;99.90;;;;;;5005351;28;20030;-59
2020/12/18 11:21:17;;;;;;;16.75;10.57;;;7.20;99.90;;;;;;4998896;28;20029;-57
2020/12/18 11:23:42;;;;;;;17.67;11.38;;;7.20;99.90;;;;;;5007552;28;20018;-59
2020/12/18 11:26:09;;;;;;;22.65;14.27;;;7.20;99.90;;;;;;5004145;28;20030;-57
2020/12/18 11:28:35;;;;;;;27.00;15.70;;;7.20;99.90;;;;;;5001904;28;20129;-58
2020/12/18 11:31:00;;;;;;;25.63;15.63;;;7.30;99.90;;;;;;5007566;28;20113;-59
2020/12/18 11:33:27;;;;;;;21.42;13.15;;;7.30;99.90;;;;;;5003306;28;20045;-58
2020/12/18 11:35:52;;;;;;;17.52;11.02;;;7.30;99.90;;;;;;5002123;28;20366;-57
2020/12/18 11:51:13;;;;;;;18.48;12.63;;;7.30;99.90;;;;;;5102362;27;21144;-62
2020/12/18 11:53:38;;;;;;;25.48;13.93;;;7.80;99.90;;;;;;5079130;28;20036;-62
2020/12/18 11:56:05;;;;;;;18.45;11.68;;;7.70;99.90;;;;;;5080454;28;20024;-62
2020/12/18 11:58:30;;;;;;;21.02;13.15;;;7.70;99.90;;;;;;5076891;28;20506;-62
2020/12/18 12:00:56;;;;;;;23.83;13.38;;;7.70;99.90;;;;;;5079750;28;20115;-62
2020/12/18 12:03:23;;;;;;;21.55;12.95;;;7.70;99.90;;;;;;5055859;28;20361;-62
2020/12/18 12:05:48;;;;;;;20.30;13.43;;;7.70;99.90;;;;;;5081285;28;20067;-63
2020/12/18 12:08:14;;;;;;;15.90;10.60;;;7.70;99.90;;;;;;5077525;28;20115;-63
2020/12/18 12:10:39;;;;;;;20.58;12.75;;;7.60;99.90;;;;;;5079716;28;20043;-62
2020/12/18 12:13:04;;;;;;;18.90;11.25;;;7.60;99.90;;;;;;5075174;28;20040;-62
2020/12/18 12:15:30;;;;;;;15.57;9.57;;;7.70;99.90;;;;;;5062491;28;20413;-62
2020/12/18 12:17:55;;;;;;;19.65;11.48;;;7.60;99.90;;;;;;5077011;28;20058;-62
2020/12/18 12:20:21;;;;;;;19.63;11.77;;;7.60;99.90;;;;;;5074039;28;20039;-63
2020/12/18 12:22:46;;;;;;;17.42;11.20;;;7.60;99.90;;;;;;5072890;28;20036;-63
2020/12/18 12:25:12;;;;;;;18.58;11.63;;;7.60;99.90;;;;;;5068288;28;20116;-62
2020/12/18 12:27:38;;;;;;;17.80;10.60;;;7.60;99.90;;;;;;5086333;28;20111;-62
2020/12/18 12:30:03;;;;;;;17.27;10.60;;;7.60;99.90;;;;;;5072272;28;20191;-63
2020/12/18 12:32:29;;;;;;;20.45;11.77;;;7.70;99.90;;;;;;5089767;28;20453;-62
2020/12/18 12:34:54;;;;;;;16.20;10.65;;;7.70;99.90;;;;;;5075943;28;20029;-63
2020/12/18 12:37:20;;;;;;;19.77;11.45;;;7.80;99.90;;;;;;5075412;28;20272;-63
2020/12/18 12:39:48;;;;;;;19.95;11.27;;;7.70;99.90;;;;;;5071039;28;20499;-62
2020/12/18 12:42:14;;;;;;;22.70;13.50;;;7.70;99.90;;;;;;5091648;28;20319;-63
2020/12/18 12:44:40;;;;;;;19.98;11.73;;;7.70;99.90;;;;;;5068266;28;20028;-63
2020/12/18 12:47:05;;;;;;;19.85;12.20;;;7.70;99.90;;;;;;5074995;28;20033;-63
2020/12/18 12:49:31;;;;;;;22.27;13.18;;;7.70;99.90;;;;;;5080528;28;20063;-62
2020/12/18 12:51:58;;;;;;;19.15;12.00;;;7.70;99.90;;;;;;5062199;28;20037;-63
2020/12/18 12:54:24;;;;;;;15.82;10.13;;;7.70;99.90;;;;;;5046673;28;20074;-63